sensor_id;sensor_type;location;lat;lon;timestamp;pressure;altitude;pressure_sealevel;temperature;humidity
47983;BME280;33751;50.816;-1.214;2023-03-25T00:01:01;100049.58;;;23.58;100.00
47983;BME280;33751;50.816;-1.214;2023-03-25T00:03:31;100056.87;;;23.59;100.00
47983;BME280;33751;50.816;-1.214;2023-03-25T00:05:58;100062.62;;;23.30;100.00
47983;BME280;33751;50.816;-1.214;2023-03-25T00:08:25;100067.38;;;23.44;100.00
47983;BME280;33751;50.816;-1.214;2023-03-25T00:10:53;100069.58;;;23.25;100.00
47983;BME280;33751;50.816;-1.214;2023-03-25T00:13:21;100073.74;;;23.48;100.00
47983;BME280;33751;50.816;-1.214;2023-03-25T00:15:48;100078.41;;;23.32;100.00
47983;BME280;33751;50.816;-1.214;2023-03-25T00:18:14;100081.54;;;23.49;100.00
47983;BME280;33751;50.816;-1.214;2023-03-25T00:20:42;100082.98;;;23.23;100.00
47983;BME280;33751;50.816;-1.214;2023-03-25T00:23:08;100081.87;;;23.52;100.00
47983;BME280;33751;50.816;-1.214;2023-03-25T00:25:35;100082.54;;;23.35;100.00
47983;BME280;33751;50.816;-1.214;2023-03-25T00:28:02;100084.94;;;23.32;100.00
47983;BME280;33751;50.816;-1.214;2023-03-25T00:30:29;100086.20;;;23.61;100.00
47983;BME280;33751;50.816;-1.214;2023-03-25T00:32:55;100083.85;;;23.66;100.00
47983;BME280;33751;50.816;-1.214;2023-03-25T00:35:22;100092.06;;;23.36;100.00
47983;BME280;33751;50.816;-1.214;2023-03-25T00:37:51;100092.32;;;23.39;100.00
47983;BME280;33751;50.816;-1.214;2023-03-25T00:40:18;100095.91;;;23.42;100.00
47983;BME280;33751;50.816;-1.214;2023-03-25T00:42:44;100088.56;;;23.37;100.00
47983;BME280;33751;50.816;-1.214;2023-03-25T00:45:11;100092.35;;;23.41;100.00
47983;BME280;33751;50.816;-1.214;2023-03-25T00:47:38;100088.02;;;23.66;100.00
47983;BME280;33751;50.816;-1.214;2023-03-25T00:50:05;100092.61;;;23.37;100.00
47983;BME280;33751;50.816;-1.214;2023-03-25T00:52:32;100091.03;;;23.32;100.00
47983;BME280;33751;50.816;-1.214;2023-03-25T00:55:00;100082.40;;;23.73;100.00
47983;BME280;33751;50.816;-1.214;2023-03-25T00:57:27;100085.85;;;23.72;100.00
47983;BME280;33751;50.816;-1.214;2023-03-25T00:59:54;100090.01;;;23.48;100.00
47983;BME280;33751;50.816;-1.214;2023-03-25T01:02:22;100091.06;;;23.51;100.00
47983;BME280;33751;50.816;-1.214;2023-03-25T01:04:49;100095.00;;;23.24;100.00
47983;BME280;33751;50.816;-1.214;2023-03-25T01:07:16;100091.98;;;23.27;100.00
47983;BME280;33751;50.816;-1.214;2023-03-25T01:09:43;100092.82;;;23.01;100.00
47983;BME280;33751;50.816;-1.214;2023-03-25T01:12:10;100086.98;;;23.46;100.00
47983;BME280;33751;50.816;-1.214;2023-03-25T01:14:36;100093.40;;;23.19;100.00
47983;BME280;33751;50.816;-1.214;2023-03-25T01:17:03;100090.39;;;23.37;100.00
47983;BME280;33751;50.816;-1.214;2023-03-25T01:19:29;100099.88;;;23.34;100.00
47983;BME280;33751;50.816;-1.214;2023-03-25T01:21:56;100103.03;;;23.37;100.00
47983;BME280;33751;50.816;-1.214;2023-03-25T01:24:24;100108.52;;;23.31;100.00
47983;BME280;33751;50.816;-1.214;2023-03-25T01:26:51;100106.33;;;23.07;100.00
47983;BME280;33751;50.816;-1.214;2023-03-25T01:29:19;100110.84;;;23.05;100.00
47983;BME280;33751;50.816;-1.214;2023-03-25T01:31:47;100105.46;;;23.28;100.00
47983;BME280;33751;50.816;-1.214;2023-03-25T01:34:14;100105.60;;;23.04;100.00
47983;BME280;33751;50.816;-1.214;2023-03-25T01:36:42;100104.52;;;23.51;100.00
47983;BME280;33751;50.816;-1.214;2023-03-25T01:39:09;100099.44;;;23.34;100.00
47983;BME280;33751;50.816;-1.214;2023-03-25T01:41:36;100101.22;;;23.29;100.00
47983;BME280;33751;50.816;-1.214;2023-03-25T01:44:05;100093.84;;;23.16;100.00
47983;BME280;33751;50.816;-1.214;2023-03-25T01:46:32;100104.19;;;23.09;100.00
47983;BME280;33751;50.816;-1.214;2023-03-25T01:49:02;100101.83;;;23.79;100.00
47983;BME280;33751;50.816;-1.214;2023-03-25T01:51:33;100103.77;;;23.34;100.00
47983;BME280;33751;50.816;-1.214;2023-03-25T01:54:01;100107.24;;;23.27;100.00
47983;BME280;33751;50.816;-1.214;2023-03-25T01:56:31;100109.45;;;23.23;100.00
47983;BME280;33751;50.816;-1.214;2023-03-25T01:59:01;100115.66;;;23.19;100.00
47983;BME280;33751;50.816;-1.214;2023-03-25T02:01:30;100117.53;;;23.40;100.00
47983;BME280;33751;50.816;-1.214;2023-03-25T02:03:59;100121.96;;;23.08;100.00
47983;BME280;33751;50.816;-1.214;2023-03-25T02:06:29;100115.99;;;23.04;100.00
47983;BME280;33751;50.816;-1.214;2023-03-25T02:08:57;100112.77;;;22.59;100.00
47983;BME280;33751;50.816;-1.214;2023-03-25T02:11:25;100112.50;;;23.04;100.00
47983;BME280;33751;50.816;-1.214;2023-03-25T02:13:52;100112.20;;;22.78;100.00
47983;BME280;33751;50.816;-1.214;2023-03-25T02:16:26;100108.70;;;22.95;100.00
47983;BME280;33751;50.816;-1.214;2023-03-25T02:19:12;100108.66;;;22.96;100.00
47983;BME280;33751;50.816;-1.214;2023-03-25T02:22:07;100108.85;;;22.66;100.00
47983;BME280;33751;50.816;-1.214;2023-03-25T02:25:37;100109.62;;;23.33;100.00
47983;BME280;33751;50.816;-1.214;2023-03-25T02:28:15;100121.06;;;22.46;100.00
47983;BME280;33751;50.816;-1.214;2023-03-25T02:30:55;100114.48;;;22.86;100.00
47983;BME280;33751;50.816;-1.214;2023-03-25T02:33:58;100114.58;;;22.63;100.00
47983;BME280;33751;50.816;-1.214;2023-03-25T02:36:43;100120.54;;;22.89;100.00
47983;BME280;33751;50.816;-1.214;2023-03-25T02:39:20;100114.88;;;22.82;100.00
47983;BME280;33751;50.816;-1.214;2023-03-25T02:41:51;100114.69;;;22.58;100.00
47983;BME280;33751;50.816;-1.214;2023-03-25T02:44:26;100115.48;;;22.79;100.00
47983;BME280;33751;50.816;-1.214;2023-03-25T02:47:00;100116.10;;;22.77;100.00
47983;BME280;33751;50.816;-1.214;2023-03-25T02:49:30;100115.57;;;23.07;100.00
47983;BME280;33751;50.816;-1.214;2023-03-25T02:52:05;100121.72;;;22.74;100.00
47983;BME280;33751;50.816;-1.214;2023-03-25T02:54:36;100129.30;;;22.68;100.00
47983;BME280;33751;50.816;-1.214;2023-03-25T02:57:06;100139.43;;;22.70;100.00
47983;BME280;33751;50.816;-1.214;2023-03-25T02:59:34;100139.21;;;22.93;100.00
47983;BME280;33751;50.816;-1.214;2023-03-25T03:02:04;100142.49;;;22.69;100.00
47983;BME280;33751;50.816;-1.214;2023-03-25T03:04:32;100148.01;;;22.72;100.00
47983;BME280;33751;50.816;-1.214;2023-03-25T03:07:00;100147.48;;;22.69;100.00
47983;BME280;33751;50.816;-1.214;2023-03-25T03:09:34;100143.18;;;22.64;100.00
47983;BME280;33751;50.816;-1.214;2023-03-25T03:12:16;100147.28;;;22.64;100.00
47983;BME280;33751;50.816;-1.214;2023-03-25T03:14:59;100143.16;;;22.58;100.00
47983;BME280;33751;50.816;-1.214;2023-03-25T03:17:36;100152.17;;;22.57;100.00
47983;BME280;33751;50.816;-1.214;2023-03-25T03:20:16;100155.10;;;22.58;100.00
47983;BME280;33751;50.816;-1.214;2023-03-25T03:22:49;100161.10;;;22.58;100.00
47983;BME280;33751;50.816;-1.214;2023-03-25T03:25:22;100163.67;;;22.55;100.00
47983;BME280;33751;50.816;-1.214;2023-03-25T03:27:56;100163.16;;;22.48;100.00
47983;BME280;33751;50.816;-1.214;2023-03-25T03:30:31;100165.21;;;22.52;100.00
47983;BME280;33751;50.816;-1.214;2023-03-25T03:33:06;100158.91;;;22.74;100.00
47983;BME280;33751;50.816;-1.214;2023-03-25T03:35:38;100162.94;;;22.98;100.00
47983;BME280;33751;50.816;-1.214;2023-03-25T03:38:11;100157.82;;;22.92;100.00
47983;BME280;33751;50.816;-1.214;2023-03-25T03:40:41;100156.26;;;22.44;100.00
47983;BME280;33751;50.816;-1.214;2023-03-25T03:43:14;100164.53;;;22.42;100.00
47983;BME280;33751;50.816;-1.214;2023-03-25T03:45:46;100170.87;;;22.45;100.00
47983;BME280;33751;50.816;-1.214;2023-03-25T03:48:21;100174.44;;;22.66;100.00
47983;BME280;33751;50.816;-1.214;2023-03-25T03:50:51;100178.84;;;22.63;100.00
47983;BME280;33751;50.816;-1.214;2023-03-25T03:53:23;100186.47;;;22.84;100.00
47983;BME280;33751;50.816;-1.214;2023-03-25T03:55:57;100191.17;;;22.60;100.00
47983;BME280;33751;50.816;-1.214;2023-03-25T03:58:28;100186.93;;;22.14;100.00
47983;BME280;33751;50.816;-1.214;2023-03-25T04:01:01;100193.29;;;22.36;100.00
47983;BME280;33751;50.816;-1.214;2023-03-25T04:03:32;100194.93;;;22.89;100.00
47983;BME280;33751;50.816;-1.214;2023-03-25T04:06:05;100193.56;;;22.61;100.00
47983;BME280;33751;50.816;-1.214;2023-03-25T04:08:40;100193.14;;;22.30;100.00
47983;BME280;33751;50.816;-1.214;2023-03-25T04:11:17;100195.93;;;22.59;100.00
47983;BME280;33751;50.816;-1.214;2023-03-25T04:13:45;100206.92;;;22.26;100.00
47983;BME280;33751;50.816;-1.214;2023-03-25T04:16:15;100208.14;;;22.33;100.00
47983;BME280;33751;50.816;-1.214;2023-03-25T04:18:42;100217.51;;;22.60;100.00
47983;BME280;33751;50.816;-1.214;2023-03-25T04:21:09;100215.03;;;22.29;100.00
47983;BME280;33751;50.816;-1.214;2023-03-25T04:23:36;100214.77;;;22.71;100.00
47983;BME280;33751;50.816;-1.214;2023-03-25T04:26:02;100217.69;;;22.23;100.00
47983;BME280;33751;50.816;-1.214;2023-03-25T04:28:30;100216.14;;;22.48;100.00
47983;BME280;33751;50.816;-1.214;2023-03-25T04:30:56;100219.10;;;22.22;100.00
47983;BME280;33751;50.816;-1.214;2023-03-25T04:33:23;100219.95;;;22.72;100.00
47983;BME280;33751;50.816;-1.214;2023-03-25T04:35:50;100221.73;;;22.46;100.00
47983;BME280;33751;50.816;-1.214;2023-03-25T04:38:18;100228.28;;;22.15;100.00
47983;BME280;33751;50.816;-1.214;2023-03-25T04:40:44;100229.99;;;22.20;100.00
47983;BME280;33751;50.816;-1.214;2023-03-25T04:43:12;100227.18;;;22.60;100.00
47983;BME280;33751;50.816;-1.214;2023-03-25T04:45:39;100231.03;;;22.13;100.00
47983;BME280;33751;50.816;-1.214;2023-03-25T04:48:13;100235.66;;;22.57;100.00
47983;BME280;33751;50.816;-1.214;2023-03-25T04:50:45;100231.36;;;22.28;100.00
47983;BME280;33751;50.816;-1.214;2023-03-25T04:53:12;100222.32;;;22.49;100.00
47983;BME280;33751;50.816;-1.214;2023-03-25T04:55:38;100221.66;;;22.28;100.00
47983;BME280;33751;50.816;-1.214;2023-03-25T04:58:05;100224.02;;;22.04;100.00
47983;BME280;33751;50.816;-1.214;2023-03-25T05:00:31;100223.96;;;22.31;100.00
47983;BME280;33751;50.816;-1.214;2023-03-25T05:02:58;100223.53;;;22.25;100.00
47983;BME280;33751;50.816;-1.214;2023-03-25T05:05:25;100225.51;;;22.49;100.00
47983;BME280;33751;50.816;-1.214;2023-03-25T05:07:53;100225.66;;;21.95;100.00
47983;BME280;33751;50.816;-1.214;2023-03-25T05:10:22;100231.24;;;22.49;100.00
47983;BME280;33751;50.816;-1.214;2023-03-25T05:12:49;100232.75;;;22.27;100.00
47983;BME280;33751;50.816;-1.214;2023-03-25T05:15:16;100240.68;;;22.22;100.00
47983;BME280;33751;50.816;-1.214;2023-03-25T05:17:44;100243.19;;;21.91;100.00
47983;BME280;33751;50.816;-1.214;2023-03-25T05:20:11;100247.95;;;21.90;100.00
47983;BME280;33751;50.816;-1.214;2023-03-25T05:22:38;100255.28;;;21.93;100.00
47983;BME280;33751;50.816;-1.214;2023-03-25T05:25:07;100258.39;;;22.41;100.00
47983;BME280;33751;50.816;-1.214;2023-03-25T05:27:35;100256.16;;;22.16;100.00
47983;BME280;33751;50.816;-1.214;2023-03-25T05:30:03;100262.10;;;22.12;100.00
47983;BME280;33751;50.816;-1.214;2023-03-25T05:32:30;100263.50;;;22.15;100.00
47983;BME280;33751;50.816;-1.214;2023-03-25T05:34:56;100267.62;;;22.36;100.00
47983;BME280;33751;50.816;-1.214;2023-03-25T05:37:23;100264.90;;;21.83;100.00
47983;BME280;33751;50.816;-1.214;2023-03-25T05:39:50;100264.72;;;22.10;100.00
47983;BME280;33751;50.816;-1.214;2023-03-25T05:42:16;100267.78;;;22.10;100.00
47983;BME280;33751;50.816;-1.214;2023-03-25T05:44:42;100272.34;;;22.06;100.00
47983;BME280;33751;50.816;-1.214;2023-03-25T05:47:09;100273.21;;;21.81;100.00
47983;BME280;33751;50.816;-1.214;2023-03-25T05:49:35;100275.92;;;22.08;100.00
47983;BME280;33751;50.816;-1.214;2023-03-25T05:52:02;100278.22;;;22.07;100.00
47983;BME280;33751;50.816;-1.214;2023-03-25T05:54:29;100277.99;;;22.08;100.00
47983;BME280;33751;50.816;-1.214;2023-03-25T05:56:56;100281.99;;;21.84;100.00
47983;BME280;33751;50.816;-1.214;2023-03-25T05:59:23;100285.16;;;22.29;100.00
47983;BME280;33751;50.816;-1.214;2023-03-25T06:01:50;100288.29;;;22.29;100.00
47983;BME280;33751;50.816;-1.214;2023-03-25T06:04:17;100295.86;;;22.23;100.00
47983;BME280;33751;50.816;-1.214;2023-03-25T06:06:44;100299.18;;;22.05;100.00
47983;BME280;33751;50.816;-1.214;2023-03-25T06:09:11;100298.08;;;22.31;100.00
47983;BME280;33751;50.816;-1.214;2023-03-25T06:11:38;100304.80;;;22.34;100.00
47983;BME280;33751;50.816;-1.214;2023-03-25T06:14:05;100306.51;;;22.02;100.00
47983;BME280;33751;50.816;-1.214;2023-03-25T06:16:32;100306.15;;;22.32;100.00
47983;BME280;33751;50.816;-1.214;2023-03-25T06:18:58;100314.74;;;22.53;100.00
47983;BME280;33751;50.816;-1.214;2023-03-25T06:21:26;100314.22;;;22.52;100.00
47983;BME280;33751;50.816;-1.214;2023-03-25T06:23:56;100317.99;;;22.38;100.00
47983;BME280;33751;50.816;-1.214;2023-03-25T06:26:23;100318.84;;;22.49;100.00
47983;BME280;33751;50.816;-1.214;2023-03-25T06:28:50;100319.21;;;22.50;100.00
47983;BME280;33751;50.816;-1.214;2023-03-25T06:31:19;100321.45;;;22.61;100.00
47983;BME280;33751;50.816;-1.214;2023-03-25T06:33:48;100325.97;;;22.44;100.00
47983;BME280;33751;50.816;-1.214;2023-03-25T06:36:17;100325.46;;;22.63;100.00
47983;BME280;33751;50.816;-1.214;2023-03-25T06:38:44;100331.66;;;22.32;100.00
47983;BME280;33751;50.816;-1.214;2023-03-25T06:41:11;100339.35;;;22.30;100.00
47983;BME280;33751;50.816;-1.214;2023-03-25T06:43:38;100348.48;;;22.30;100.00
47983;BME280;33751;50.816;-1.214;2023-03-25T06:46:06;100356.39;;;22.58;100.00
47983;BME280;33751;50.816;-1.214;2023-03-25T06:48:32;100358.62;;;22.41;100.00
47983;BME280;33751;50.816;-1.214;2023-03-25T06:51:00;100363.48;;;22.25;100.00
47983;BME280;33751;50.816;-1.214;2023-03-25T06:53:26;100369.89;;;22.41;100.00
47983;BME280;33751;50.816;-1.214;2023-03-25T06:55:55;100373.55;;;22.56;100.00
47983;BME280;33751;50.816;-1.214;2023-03-25T06:58:22;100376.43;;;22.81;100.00
47983;BME280;33751;50.816;-1.214;2023-03-25T07:00:52;100373.16;;;23.13;100.00
47983;BME280;33751;50.816;-1.214;2023-03-25T07:03:19;100381.47;;;23.32;100.00
47983;BME280;33751;50.816;-1.214;2023-03-25T07:05:46;100383.29;;;23.89;100.00
47983;BME280;33751;50.816;-1.214;2023-03-25T07:08:13;100386.26;;;24.05;100.00
47983;BME280;33751;50.816;-1.214;2023-03-25T07:10:40;100382.92;;;24.52;100.00
47983;BME280;33751;50.816;-1.214;2023-03-25T07:13:07;100385.02;;;24.26;100.00
47983;BME280;33751;50.816;-1.214;2023-03-25T07:15:35;100385.11;;;24.82;100.00
47983;BME280;33751;50.816;-1.214;2023-03-25T07:18:02;100379.57;;;24.90;100.00
47983;BME280;33751;50.816;-1.214;2023-03-25T07:20:29;100384.79;;;25.11;100.00
47983;BME280;33751;50.816;-1.214;2023-03-25T07:22:55;100385.42;;;25.89;100.00
47983;BME280;33751;50.816;-1.214;2023-03-25T07:25:22;100387.90;;;25.59;100.00
47983;BME280;33751;50.816;-1.214;2023-03-25T07:27:49;100389.24;;;25.35;100.00
47983;BME280;33751;50.816;-1.214;2023-03-25T07:30:16;100391.31;;;25.29;100.00
47983;BME280;33751;50.816;-1.214;2023-03-25T07:32:43;100395.21;;;26.90;100.00
47983;BME280;33751;50.816;-1.214;2023-03-25T07:35:10;100394.70;;;26.85;100.00
47983;BME280;33751;50.816;-1.214;2023-03-25T07:37:37;100400.77;;;27.26;100.00
47983;BME280;33751;50.816;-1.214;2023-03-25T07:40:05;100396.75;;;28.21;100.00
47983;BME280;33751;50.816;-1.214;2023-03-25T07:42:32;100399.47;;;28.73;100.00
47983;BME280;33751;50.816;-1.214;2023-03-25T07:45:01;100399.57;;;27.74;100.00
47983;BME280;33751;50.816;-1.214;2023-03-25T07:47:28;100413.30;;;27.18;100.00
47983;BME280;33751;50.816;-1.214;2023-03-25T07:49:55;100408.89;;;27.98;100.00
47983;BME280;33751;50.816;-1.214;2023-03-25T07:52:22;100415.87;;;27.66;100.00
47983;BME280;33751;50.816;-1.214;2023-03-25T07:54:48;100428.27;;;27.08;100.00
47983;BME280;33751;50.816;-1.214;2023-03-25T07:57:15;100430.12;;;26.78;100.00
47983;BME280;33751;50.816;-1.214;2023-03-25T07:59:42;100430.22;;;26.60;100.00
47983;BME280;33751;50.816;-1.214;2023-03-25T08:02:10;100442.15;;;26.51;100.00
47983;BME280;33751;50.816;-1.214;2023-03-25T08:04:37;100443.13;;;26.25;100.00
47983;BME280;33751;50.816;-1.214;2023-03-25T08:07:04;100443.85;;;26.30;100.00
47983;BME280;33751;50.816;-1.214;2023-03-25T08:09:31;100449.37;;;26.70;100.00
47983;BME280;33751;50.816;-1.214;2023-03-25T08:11:58;100453.87;;;26.12;100.00
47983;BME280;33751;50.816;-1.214;2023-03-25T08:14:26;100453.75;;;26.82;100.00
47983;BME280;33751;50.816;-1.214;2023-03-25T08:16:53;100462.79;;;27.41;100.00
47983;BME280;33751;50.816;-1.214;2023-03-25T08:19:19;100463.56;;;27.04;100.00
47983;BME280;33751;50.816;-1.214;2023-03-25T08:21:45;100462.74;;;26.64;100.00
47983;BME280;33751;50.816;-1.214;2023-03-25T08:24:13;100456.25;;;27.27;100.00
47983;BME280;33751;50.816;-1.214;2023-03-25T08:26:39;100459.76;;;26.87;100.00
47983;BME280;33751;50.816;-1.214;2023-03-25T08:29:06;100462.81;;;26.84;100.00
47983;BME280;33751;50.816;-1.214;2023-03-25T08:31:33;100461.58;;;26.86;100.00
47983;BME280;33751;50.816;-1.214;2023-03-25T08:34:00;100465.18;;;27.00;100.00
47983;BME280;33751;50.816;-1.214;2023-03-25T08:36:28;100472.58;;;27.00;100.00
47983;BME280;33751;50.816;-1.214;2023-03-25T08:38:55;100472.38;;;26.78;100.00
47983;BME280;33751;50.816;-1.214;2023-03-25T08:41:22;100470.87;;;26.85;100.00
47983;BME280;33751;50.816;-1.214;2023-03-25T08:43:49;100479.03;;;26.61;100.00
47983;BME280;33751;50.816;-1.214;2023-03-25T08:46:16;100486.43;;;26.75;100.00
47983;BME280;33751;50.816;-1.214;2023-03-25T08:48:42;100488.01;;;26.59;100.00
47983;BME280;33751;50.816;-1.214;2023-03-25T08:51:09;100488.47;;;26.31;100.00
47983;BME280;33751;50.816;-1.214;2023-03-25T08:53:35;100493.89;;;26.13;100.00
47983;BME280;33751;50.816;-1.214;2023-03-25T08:56:02;100495.52;;;26.25;100.00
47983;BME280;33751;50.816;-1.214;2023-03-25T08:58:29;100495.32;;;26.01;100.00
47983;BME280;33751;50.816;-1.214;2023-03-25T09:00:56;100502.65;;;26.07;100.00
47983;BME280;33751;50.816;-1.214;2023-03-25T09:03:24;100505.74;;;25.54;100.00
47983;BME280;33751;50.816;-1.214;2023-03-25T09:05:51;100507.17;;;25.96;100.00
47983;BME280;33751;50.816;-1.214;2023-03-25T09:08:18;100506.37;;;25.93;100.00
47983;BME280;33751;50.816;-1.214;2023-03-25T09:10:45;100508.92;;;25.65;100.00
47983;BME280;33751;50.816;-1.214;2023-03-25T09:13:13;100507.92;;;26.50;100.00
47983;BME280;33751;50.816;-1.214;2023-03-25T09:15:40;100517.64;;;26.21;100.00
47983;BME280;33751;50.816;-1.214;2023-03-25T09:18:07;100520.34;;;26.07;100.00
47983;BME280;33751;50.816;-1.214;2023-03-25T09:20:34;100520.63;;;26.37;100.00
47983;BME280;33751;50.816;-1.214;2023-03-25T09:23:01;100526.40;;;26.39;100.00
47983;BME280;33751;50.816;-1.214;2023-03-25T09:25:28;100524.17;;;26.57;100.00
47983;BME280;33751;50.816;-1.214;2023-03-25T09:27:55;100529.88;;;26.26;100.00
47983;BME280;33751;50.816;-1.214;2023-03-25T09:30:21;100531.87;;;26.36;100.00
47983;BME280;33751;50.816;-1.214;2023-03-25T09:32:48;100534.52;;;26.06;100.00
47983;BME280;33751;50.816;-1.214;2023-03-25T09:35:14;100530.72;;;26.28;100.00
47983;BME280;33751;50.816;-1.214;2023-03-25T09:37:42;100532.76;;;26.32;100.00
47983;BME280;33751;50.816;-1.214;2023-03-25T09:40:11;100530.04;;;26.50;100.00
47983;BME280;33751;50.816;-1.214;2023-03-25T09:42:47;100535.67;;;26.64;100.00
47983;BME280;33751;50.816;-1.214;2023-03-25T09:45:27;100538.98;;;26.00;100.00
47983;BME280;33751;50.816;-1.214;2023-03-25T09:47:59;100534.95;;;26.00;100.00
47983;BME280;33751;50.816;-1.214;2023-03-25T09:50:29;100536.82;;;25.84;100.00
47983;BME280;33751;50.816;-1.214;2023-03-25T09:53:02;100543.40;;;26.08;100.00
47983;BME280;33751;50.816;-1.214;2023-03-25T09:55:34;100548.37;;;25.83;100.00
47983;BME280;33751;50.816;-1.214;2023-03-25T09:58:25;100554.99;;;25.80;100.00
47983;BME280;33751;50.816;-1.214;2023-03-25T10:00:57;100566.50;;;25.58;100.00
47983;BME280;33751;50.816;-1.214;2023-03-25T10:03:30;100572.21;;;25.38;100.00
47983;BME280;33751;50.816;-1.214;2023-03-25T10:06:10;100571.04;;;25.34;100.00
47983;BME280;33751;50.816;-1.214;2023-03-25T10:08:46;100576.17;;;25.44;100.00
47983;BME280;33751;50.816;-1.214;2023-03-25T10:11:26;100580.89;;;25.96;100.00
47983;BME280;33751;50.816;-1.214;2023-03-25T10:14:03;100583.80;;;25.43;100.00
47983;BME280;33751;50.816;-1.214;2023-03-25T10:16:40;100593.25;;;25.56;100.00
47983;BME280;33751;50.816;-1.214;2023-03-25T10:19:25;100598.12;;;25.40;100.00
47983;BME280;33751;50.816;-1.214;2023-03-25T10:21:57;100595.33;;;25.31;100.00
47983;BME280;33751;50.816;-1.214;2023-03-25T10:24:30;100607.30;;;25.82;100.00
47983;BME280;33751;50.816;-1.214;2023-03-25T10:27:02;100612.43;;;25.17;100.00
47983;BME280;33751;50.816;-1.214;2023-03-25T10:29:35;100609.48;;;25.35;100.00
47983;BME280;33751;50.816;-1.214;2023-03-25T10:32:10;100606.35;;;25.62;100.00
47983;BME280;33751;50.816;-1.214;2023-03-25T10:34:41;100609.36;;;25.45;100.00
47983;BME280;33751;50.816;-1.214;2023-03-25T10:37:12;100611.89;;;25.84;100.00
47983;BME280;33751;50.816;-1.214;2023-03-25T10:39:42;100622.13;;;25.54;100.00
47983;BME280;33751;50.816;-1.214;2023-03-25T10:42:16;100613.25;;;25.44;100.00
47983;BME280;33751;50.816;-1.214;2023-03-25T10:44:45;100611.16;;;25.67;100.00
47983;BME280;33751;50.816;-1.214;2023-03-25T10:47:16;100625.09;;;25.60;100.00
47983;BME280;33751;50.816;-1.214;2023-03-25T10:49:46;100639.69;;;25.56;100.00
47983;BME280;33751;50.816;-1.214;2023-03-25T10:52:14;100641.47;;;25.51;100.00
47983;BME280;33751;50.816;-1.214;2023-03-25T10:54:43;100638.61;;;25.57;100.00
47983;BME280;33751;50.816;-1.214;2023-03-25T10:57:15;100633.74;;;25.90;100.00
47983;BME280;33751;50.816;-1.214;2023-03-25T10:59:53;100639.86;;;25.63;100.00
47983;BME280;33751;50.816;-1.214;2023-03-25T11:02:25;100640.99;;;25.45;100.00
47983;BME280;33751;50.816;-1.214;2023-03-25T11:04:55;100644.55;;;25.42;100.00
47983;BME280;33751;50.816;-1.214;2023-03-25T11:07:27;100652.06;;;25.73;100.00
47983;BME280;33751;50.816;-1.214;2023-03-25T11:10:09;100651.02;;;25.40;100.00
47983;BME280;33751;50.816;-1.214;2023-03-25T11:12:38;100651.90;;;25.35;100.00
47983;BME280;33751;50.816;-1.214;2023-03-25T11:15:06;100653.22;;;25.47;100.00
47983;BME280;33751;50.816;-1.214;2023-03-25T11:17:34;100650.25;;;25.21;100.00
47983;BME280;33751;50.816;-1.214;2023-03-25T11:20:05;100647.70;;;25.67;100.00
47983;BME280;33751;50.816;-1.214;2023-03-25T11:22:35;100651.39;;;25.46;100.00
47983;BME280;33751;50.816;-1.214;2023-03-25T11:25:06;100647.73;;;25.05;100.00
47983;BME280;33751;50.816;-1.214;2023-03-25T11:27:43;100649.53;;;25.36;100.00
47983;BME280;33751;50.816;-1.214;2023-03-25T11:30:15;100658.75;;;24.98;100.00
47983;BME280;33751;50.816;-1.214;2023-03-25T11:32:43;100660.22;;;25.28;100.00
47983;BME280;33751;50.816;-1.214;2023-03-25T11:35:25;100657.27;;;25.01;100.00
47983;BME280;33751;50.816;-1.214;2023-03-25T11:37:54;100655.79;;;25.49;100.00
47983;BME280;33751;50.816;-1.214;2023-03-25T11:40:23;100649.92;;;24.88;100.00
47983;BME280;33751;50.816;-1.214;2023-03-25T11:42:52;100653.39;;;25.48;100.00
47983;BME280;33751;50.816;-1.214;2023-03-25T11:45:22;100651.99;;;24.94;100.00
47983;BME280;33751;50.816;-1.214;2023-03-25T11:47:50;100655.89;;;24.96;100.00
47983;BME280;33751;50.816;-1.214;2023-03-25T11:50:20;100657.52;;;25.41;100.00
47983;BME280;33751;50.816;-1.214;2023-03-25T11:52:47;100656.48;;;25.14;100.00
47983;BME280;33751;50.816;-1.214;2023-03-25T11:55:18;100665.71;;;24.97;100.00
47983;BME280;33751;50.816;-1.214;2023-03-25T11:57:47;100653.48;;;25.14;100.00
47983;BME280;33751;50.816;-1.214;2023-03-25T12:00:26;100654.77;;;25.41;100.00
47983;BME280;33751;50.816;-1.214;2023-03-25T12:02:59;100656.69;;;24.91;100.00
47983;BME280;33751;50.816;-1.214;2023-03-25T12:05:26;100653.68;;;25.37;100.00
47983;BME280;33751;50.816;-1.214;2023-03-25T12:08:02;100650.39;;;25.37;100.00
47983;BME280;33751;50.816;-1.214;2023-03-25T12:10:37;100650.48;;;25.10;100.00
47983;BME280;33751;50.816;-1.214;2023-03-25T12:13:14;100647.91;;;25.15;100.00
47983;BME280;33751;50.816;-1.214;2023-03-25T12:15:48;100647.73;;;25.20;100.00
47983;BME280;33751;50.816;-1.214;2023-03-25T12:18:34;100651.18;;;25.58;100.00
47983;BME280;33751;50.816;-1.214;2023-03-25T12:21:14;100648.27;;;25.72;100.00
47983;BME280;33751;50.816;-1.214;2023-03-25T12:23:52;100649.80;;;25.28;100.00
47983;BME280;33751;50.816;-1.214;2023-03-25T12:26:24;100652.83;;;25.00;100.00
47983;BME280;33751;50.816;-1.214;2023-03-25T12:29:07;100650.63;;;24.90;100.00
47983;BME280;33751;50.816;-1.214;2023-03-25T12:31:50;100660.82;;;25.31;100.00
47983;BME280;33751;50.816;-1.214;2023-03-25T12:34:29;100657.14;;;25.19;100.00
47983;BME280;33751;50.816;-1.214;2023-03-25T12:37:07;100662.05;;;24.94;100.00
47983;BME280;33751;50.816;-1.214;2023-03-25T12:39:46;100657.58;;;25.21;100.00
47983;BME280;33751;50.816;-1.214;2023-03-25T12:42:29;100661.97;;;25.08;100.00
47983;BME280;33751;50.816;-1.214;2023-03-25T12:45:27;100664.92;;;25.36;100.00